sensor_id;sensor_type;location;lat;lon;timestamp;pressure;altitude;pressure_sealevel;temperature;humidity
77118;BME280;66072;50.238;19.228;2023-04-03T00:01:10;98854.30;;;1.25;89.46
77118;BME280;66072;50.238;19.228;2023-04-03T00:03:38;98853.09;;;1.27;89.55
77118;BME280;66072;50.238;19.228;2023-04-03T00:06:06;98855.80;;;1.31;89.47
77118;BME280;66072;50.238;19.228;2023-04-03T00:08:34;98854.09;;;1.33;89.48
77118;BME280;66072;50.238;19.228;2023-04-03T00:11:02;98854.09;;;1.38;89.61
77118;BME280;66072;50.238;19.228;2023-04-03T00:13:32;98857.59;;;1.41;89.16
77118;BME280;66072;50.238;19.228;2023-04-03T00:16:00;98855.08;;;1.42;88.69
77118;BME280;66072;50.238;19.228;2023-04-03T00:18:28;98857.27;;;1.43;88.66
77118;BME280;66072;50.238;19.228;2023-04-03T00:20:55;98857.23;;;1.47;88.66
77118;BME280;66072;50.238;19.228;2023-04-03T00:23:23;98858.25;;;1.47;88.22
77118;BME280;66072;50.238;19.228;2023-04-03T00:25:51;98857.77;;;1.44;87.95
77118;BME280;66072;50.238;19.228;2023-04-03T00:28:19;98857.77;;;1.42;87.89
77118;BME280;66072;50.238;19.228;2023-04-03T00:30:51;98858.11;;;1.41;87.61
77118;BME280;66072;50.238;19.228;2023-04-03T00:33:19;98859.45;;;1.43;87.92
77118;BME280;66072;50.238;19.228;2023-04-03T00:35:47;98855.39;;;1.46;87.71
77118;BME280;66072;50.238;19.228;2023-04-03T00:38:15;98854.38;;;1.47;87.51
77118;BME280;66072;50.238;19.228;2023-04-03T00:40:45;98854.54;;;1.47;87.42
77118;BME280;66072;50.238;19.228;2023-04-03T00:43:24;98857.76;;;1.48;87.70
77118;BME280;66072;50.238;19.228;2023-04-03T00:45:54;98853.52;;;1.47;87.45
77118;BME280;66072;50.238;19.228;2023-04-03T00:48:27;98858.09;;;1.46;87.00
77118;BME280;66072;50.238;19.228;2023-04-03T00:50:56;98861.13;;;1.45;86.74
77118;BME280;66072;50.238;19.228;2023-04-03T00:53:29;98862.16;;;1.43;86.79
77118;BME280;66072;50.238;19.228;2023-04-03T00:55:58;98864.18;;;1.38;86.53
77118;BME280;66072;50.238;19.228;2023-04-03T00:58:35;98864.55;;;1.31;86.54
77118;BME280;66072;50.238;19.228;2023-04-03T01:01:07;98864.22;;;1.27;86.81
77118;BME280;66072;50.238;19.228;2023-04-03T01:03:35;98868.62;;;1.23;87.25
77118;BME280;66072;50.238;19.228;2023-04-03T01:06:03;98873.34;;;1.20;87.25
77118;BME280;66072;50.238;19.228;2023-04-03T01:08:31;98874.18;;;1.19;87.60
77118;BME280;66072;50.238;19.228;2023-04-03T01:10:59;98882.11;;;1.19;87.54
77118;BME280;66072;50.238;19.228;2023-04-03T01:13:30;98884.30;;;1.18;87.70
77118;BME280;66072;50.238;19.228;2023-04-03T01:16:01;98884.96;;;1.15;87.58
77118;BME280;66072;50.238;19.228;2023-04-03T01:18:30;98880.77;;;1.13;87.89
77118;BME280;66072;50.238;19.228;2023-04-03T01:24:11;98887.02;;;1.07;87.94
77118;BME280;66072;50.238;19.228;2023-04-03T01:26:42;98880.77;;;1.04;88.13
77118;BME280;66072;50.238;19.228;2023-04-03T01:29:10;98887.69;;;1.02;88.19
77118;BME280;66072;50.238;19.228;2023-04-03T01:31:54;98890.39;;;1.00;88.23
77118;BME280;66072;50.238;19.228;2023-04-03T01:34:23;98890.90;;;0.99;88.37
77118;BME280;66072;50.238;19.228;2023-04-03T01:36:51;98894.94;;;1.01;88.41
77118;BME280;66072;50.238;19.228;2023-04-03T01:39:19;98894.09;;;1.01;88.35
77118;BME280;66072;50.238;19.228;2023-04-03T01:41:47;98897.98;;;1.00;88.29
77118;BME280;66072;50.238;19.228;2023-04-03T01:44:15;98903.54;;;1.00;88.15
77118;BME280;66072;50.238;19.228;2023-04-03T01:46:43;98898.14;;;0.98;88.06
77118;BME280;66072;50.238;19.228;2023-04-03T01:49:10;98899.31;;;0.95;88.13
77118;BME280;66072;50.238;19.228;2023-04-03T01:51:38;98899.66;;;0.94;88.32
77118;BME280;66072;50.238;19.228;2023-04-03T01:54:05;98904.05;;;0.93;88.29
77118;BME280;66072;50.238;19.228;2023-04-03T01:56:33;98906.23;;;0.92;88.34
77118;BME280;66072;50.238;19.228;2023-04-03T01:59:01;98906.39;;;0.91;88.34
77118;BME280;66072;50.238;19.228;2023-04-03T02:01:28;98907.91;;;0.90;88.46
77118;BME280;66072;50.238;19.228;2023-04-03T02:03:56;98906.40;;;0.88;88.24
77118;BME280;66072;50.238;19.228;2023-04-03T02:06:23;98905.23;;;0.87;88.35
77118;BME280;66072;50.238;19.228;2023-04-03T02:08:51;98908.08;;;0.85;88.26
77118;BME280;66072;50.238;19.228;2023-04-03T02:11:18;98908.92;;;0.84;88.33
77118;BME280;66072;50.238;19.228;2023-04-03T02:13:46;98913.14;;;0.82;88.33
77118;BME280;66072;50.238;19.228;2023-04-03T02:16:14;98912.97;;;0.80;88.49
77118;BME280;66072;50.238;19.228;2023-04-03T02:18:41;98917.34;;;0.79;88.40
77118;BME280;66072;50.238;19.228;2023-04-03T02:21:09;98916.83;;;0.78;88.46
77118;BME280;66072;50.238;19.228;2023-04-03T02:23:37;98919.53;;;0.77;88.38
77118;BME280;66072;50.238;19.228;2023-04-03T02:26:10;98920.04;;;0.75;88.35
77118;BME280;66072;50.238;19.228;2023-04-03T02:28:38;98919.54;;;0.74;88.36
77118;BME280;66072;50.238;19.228;2023-04-03T02:31:05;98916.17;;;0.74;88.45
77118;BME280;66072;50.238;19.228;2023-04-03T02:33:34;98919.70;;;0.74;88.28
77118;BME280;66072;50.238;19.228;2023-04-03T02:36:04;98921.71;;;0.74;88.34
77118;BME280;66072;50.238;19.228;2023-04-03T02:38:32;98921.38;;;0.73;88.04
77118;BME280;66072;50.238;19.228;2023-04-03T02:41:01;98915.66;;;0.70;87.89
77118;BME280;66072;50.238;19.228;2023-04-03T02:43:29;98920.88;;;0.69;87.98
77118;BME280;66072;50.238;19.228;2023-04-03T02:45:57;98919.20;;;0.69;88.03
77118;BME280;66072;50.238;19.228;2023-04-03T02:48:25;98919.52;;;0.69;87.83
77118;BME280;66072;50.238;19.228;2023-04-03T02:50:52;98920.21;;;0.68;87.83
77118;BME280;66072;50.238;19.228;2023-04-03T02:53:20;98922.90;;;0.68;87.94
77118;BME280;66072;50.238;19.228;2023-04-03T02:55:48;98926.10;;;0.68;87.93
77118;BME280;66072;50.238;19.228;2023-04-03T02:58:15;98924.92;;;0.68;87.84
77118;BME280;66072;50.238;19.228;2023-04-03T03:00:43;98924.59;;;0.68;87.72
77118;BME280;66072;50.238;19.228;2023-04-03T03:03:11;98926.25;;;0.66;87.78
77118;BME280;66072;50.238;19.228;2023-04-03T03:05:38;98926.77;;;0.64;87.59
77118;BME280;66072;50.238;19.228;2023-04-03T03:08:06;98928.63;;;0.62;87.44
77118;BME280;66072;50.238;19.228;2023-04-03T03:10:33;98926.08;;;0.57;87.14
77118;BME280;66072;50.238;19.228;2023-04-03T03:13:02;98923.20;;;0.53;86.74
77118;BME280;66072;50.238;19.228;2023-04-03T03:15:29;98929.10;;;0.50;86.71
77118;BME280;66072;50.238;19.228;2023-04-03T03:17:57;98925.90;;;0.46;86.56
77118;BME280;66072;50.238;19.228;2023-04-03T03:20:25;98934.15;;;0.45;86.99
77118;BME280;66072;50.238;19.228;2023-04-03T03:22:52;98935.33;;;0.44;87.19
77118;BME280;66072;50.238;19.228;2023-04-03T03:25:20;98935.83;;;0.43;87.34
77118;BME280;66072;50.238;19.228;2023-04-03T03:27:47;98938.86;;;0.43;87.30
77118;BME280;66072;50.238;19.228;2023-04-03T03:30:15;98943.39;;;0.41;87.31
77118;BME280;66072;50.238;19.228;2023-04-03T03:32:43;98941.55;;;0.38;87.29
77118;BME280;66072;50.238;19.228;2023-04-03T03:35:10;98944.05;;;0.36;87.37
77118;BME280;66072;50.238;19.228;2023-04-03T03:37:38;98945.73;;;0.33;87.47
77118;BME280;66072;50.238;19.228;2023-04-03T03:40:06;98946.22;;;0.29;87.53
77118;BME280;66072;50.238;19.228;2023-04-03T03:42:34;98946.73;;;0.25;87.79
77118;BME280;66072;50.238;19.228;2023-04-03T03:45:01;98948.73;;;0.22;87.79
77118;BME280;66072;50.238;19.228;2023-04-03T03:47:29;98949.56;;;0.18;87.97
77118;BME280;66072;50.238;19.228;2023-04-03T03:49:56;98947.20;;;0.17;88.18
77118;BME280;66072;50.238;19.228;2023-04-03T03:52:24;98946.20;;;0.18;88.36
77118;BME280;66072;50.238;19.228;2023-04-03T03:54:52;98951.42;;;0.21;88.62
77118;BME280;66072;50.238;19.228;2023-04-03T03:57:20;98953.09;;;0.22;88.47
77118;BME280;66072;50.238;19.228;2023-04-03T03:59:47;98950.23;;;0.23;88.38
77118;BME280;66072;50.238;19.228;2023-04-03T04:02:15;98951.76;;;0.23;88.32
77118;BME280;66072;50.238;19.228;2023-04-03T04:04:43;98954.45;;;0.20;88.18
77118;BME280;66072;50.238;19.228;2023-04-03T04:07:10;98958.30;;;0.19;88.17
77118;BME280;66072;50.238;19.228;2023-04-03T04:09:38;98956.79;;;0.17;88.21
77118;BME280;66072;50.238;19.228;2023-04-03T04:12:05;98959.48;;;0.15;88.28
77118;BME280;66072;50.238;19.228;2023-04-03T04:14:33;98959.46;;;0.11;87.92
77118;BME280;66072;50.238;19.228;2023-04-03T04:17:01;98961.63;;;0.06;87.95
77118;BME280;66072;50.238;19.228;2023-04-03T04:19:28;98966.49;;;0.02;87.76
77118;BME280;66072;50.238;19.228;2023-04-03T04:21:56;98965.31;;;0.00;88.15
77118;BME280;66072;50.238;19.228;2023-04-03T04:24:23;98969.85;;;-0.01;88.17
77118;BME280;66072;50.238;19.228;2023-04-03T04:26:51;98971.18;;;-0.04;88.14
77118;BME280;66072;50.238;19.228;2023-04-03T04:29:19;98976.39;;;-0.02;88.33
77118;BME280;66072;50.238;19.228;2023-04-03T04:31:46;98975.73;;;-0.01;88.37
77118;BME280;66072;50.238;19.228;2023-04-03T04:34:14;98978.92;;;-0.01;88.23
77118;BME280;66072;50.238;19.228;2023-04-03T04:36:42;98983.48;;;0.01;88.33
77118;BME280;66072;50.238;19.228;2023-04-03T04:39:10;98987.02;;;0.03;88.15
77118;BME280;66072;50.238;19.228;2023-04-03T04:41:37;98988.52;;;0.03;87.95
77118;BME280;66072;50.238;19.228;2023-04-03T04:44:05;98989.70;;;0.01;87.49
77118;BME280;66072;50.238;19.228;2023-04-03T04:46:32;98990.70;;;-0.00;87.32
77118;BME280;66072;50.238;19.228;2023-04-03T04:49:00;98992.56;;;0.04;87.30
77118;BME280;66072;50.238;19.228;2023-04-03T04:51:28;98993.58;;;0.05;87.04
77118;BME280;66072;50.238;19.228;2023-04-03T04:54:04;98999.96;;;0.05;86.66
77118;BME280;66072;50.238;19.228;2023-04-03T04:56:32;99002.31;;;0.05;86.11
77118;BME280;66072;50.238;19.228;2023-04-03T04:58:59;99002.83;;;0.07;86.13
77118;BME280;66072;50.238;19.228;2023-04-03T05:01:27;99006.88;;;0.07;85.71
77118;BME280;66072;50.238;19.228;2023-04-03T05:03:55;99006.36;;;0.06;84.77
77118;BME280;66072;50.238;19.228;2023-04-03T05:06:22;99010.05;;;0.05;84.50
77118;BME280;66072;50.238;19.228;2023-04-03T05:08:50;99014.11;;;0.08;85.04
77118;BME280;66072;50.238;19.228;2023-04-03T05:11:17;99015.30;;;0.09;83.83
77118;BME280;66072;50.238;19.228;2023-04-03T05:13:45;99019.49;;;0.10;83.61
77118;BME280;66072;50.238;19.228;2023-04-03T05:16:12;99019.16;;;0.12;83.69
77118;BME280;66072;50.238;19.228;2023-04-03T05:18:40;99023.70;;;0.11;83.35
77118;BME280;66072;50.238;19.228;2023-04-03T05:21:08;99022.71;;;0.14;84.20
77118;BME280;66072;50.238;19.228;2023-04-03T05:23:35;99027.78;;;0.21;84.56
77118;BME280;66072;50.238;19.228;2023-04-03T05:26:03;99027.80;;;0.28;84.14
77118;BME280;66072;50.238;19.228;2023-04-03T05:28:31;99027.34;;;0.33;84.06
77118;BME280;66072;50.238;19.228;2023-04-03T05:30:59;99029.70;;;0.39;84.47
77118;BME280;66072;50.238;19.228;2023-04-03T05:33:27;99033.77;;;0.43;83.76
77118;BME280;66072;50.238;19.228;2023-04-03T05:35:54;99035.27;;;0.43;82.94
77118;BME280;66072;50.238;19.228;2023-04-03T05:38:22;99036.46;;;0.44;83.19
77118;BME280;66072;50.238;19.228;2023-04-03T05:40:50;99038.30;;;0.46;82.90
77118;BME280;66072;50.238;19.228;2023-04-03T05:43:17;99042.51;;;0.43;81.41
77118;BME280;66072;50.238;19.228;2023-04-03T05:45:47;99044.52;;;0.39;81.84
77118;BME280;66072;50.238;19.228;2023-04-03T05:48:14;99047.71;;;0.42;82.57
77118;BME280;66072;50.238;19.228;2023-04-03T05:50:42;99043.52;;;0.45;82.05
77118;BME280;66072;50.238;19.228;2023-04-03T05:53:18;99047.73;;;0.45;80.83
77118;BME280;66072;50.238;19.228;2023-04-03T05:55:48;99049.75;;;0.48;81.73
77118;BME280;66072;50.238;19.228;2023-04-03T05:58:15;99050.79;;;0.58;81.95
77118;BME280;66072;50.238;19.228;2023-04-03T06:00:43;99050.32;;;0.69;81.57
77118;BME280;66072;50.238;19.228;2023-04-03T06:03:11;99051.53;;;0.83;81.43
77118;BME280;66072;50.238;19.228;2023-04-03T06:05:39;99052.57;;;0.97;81.28
77118;BME280;66072;50.238;19.228;2023-04-03T06:08:07;99053.60;;;1.11;80.93
77118;BME280;66072;50.238;19.228;2023-04-03T06:10:35;99055.79;;;1.27;80.72
77118;BME280;66072;50.238;19.228;2023-04-03T06:13:03;99061.70;;;1.42;80.40
77118;BME280;66072;50.238;19.228;2023-04-03T06:15:31;99063.87;;;1.61;80.14
77118;BME280;66072;50.238;19.228;2023-04-03T06:17:59;99065.04;;;1.80;79.03
77118;BME280;66072;50.238;19.228;2023-04-03T06:20:27;99066.03;;;1.90;77.88
77118;BME280;66072;50.238;19.228;2023-04-03T06:22:55;99069.38;;;1.97;77.41
77118;BME280;66072;50.238;19.228;2023-04-03T06:25:22;99068.52;;;2.06;78.05
77118;BME280;66072;50.238;19.228;2023-04-03T06:27:50;99070.86;;;2.12;76.15
77118;BME280;66072;50.238;19.228;2023-04-03T06:30:18;99071.89;;;2.06;75.28
77118;BME280;66072;50.238;19.228;2023-04-03T06:32:45;99072.90;;;2.05;76.16
77118;BME280;66072;50.238;19.228;2023-04-03T06:35:13;99075.44;;;2.03;75.71
77118;BME280;66072;50.238;19.228;2023-04-03T06:37:40;99080.00;;;2.03;76.83
77118;BME280;66072;50.238;19.228;2023-04-03T06:40:15;99082.85;;;2.07;76.76
77118;BME280;66072;50.238;19.228;2023-04-03T06:42:46;99080.65;;;2.08;76.30
77118;BME280;66072;50.238;19.228;2023-04-03T06:45:13;99084.20;;;2.11;76.87
77118;BME280;66072;50.238;19.228;2023-04-03T06:47:41;99089.92;;;2.17;76.44
77118;BME280;66072;50.238;19.228;2023-04-03T06:50:10;99089.25;;;2.12;74.88
77118;BME280;66072;50.238;19.228;2023-04-03T06:52:37;99090.95;;;2.10;75.26
77118;BME280;66072;50.238;19.228;2023-04-03T06:55:05;99091.80;;;2.05;75.07
77118;BME280;66072;50.238;19.228;2023-04-03T06:57:33;99096.20;;;1.98;75.14
77118;BME280;66072;50.238;19.228;2023-04-03T07:00:01;99098.41;;;1.87;74.44
77118;BME280;66072;50.238;19.228;2023-04-03T07:02:30;99098.77;;;1.72;73.08
77118;BME280;66072;50.238;19.228;2023-04-03T07:04:58;99103.16;;;1.60;73.27
77118;BME280;66072;50.238;19.228;2023-04-03T07:07:26;99109.23;;;1.54;73.95
77118;BME280;66072;50.238;19.228;2023-04-03T07:09:53;99115.79;;;1.48;72.92
77118;BME280;66072;50.238;19.228;2023-04-03T07:12:21;99117.48;;;1.45;73.32
77118;BME280;66072;50.238;19.228;2023-04-03T07:14:49;99120.69;;;1.42;73.84
77118;BME280;66072;50.238;19.228;2023-04-03T07:17:16;99127.24;;;1.37;72.70
77118;BME280;66072;50.238;19.228;2023-04-03T07:19:44;99122.02;;;1.30;72.78
77118;BME280;66072;50.238;19.228;2023-04-03T07:22:11;99126.23;;;1.30;74.03
77118;BME280;66072;50.238;19.228;2023-04-03T07:24:39;99130.94;;;1.33;73.74
77118;BME280;66072;50.238;19.228;2023-04-03T07:27:06;99131.11;;;1.34;72.91
77118;BME280;66072;50.238;19.228;2023-04-03T07:29:35;99136.85;;;1.33;72.75
77118;BME280;66072;50.238;19.228;2023-04-03T07:32:03;99141.23;;;1.28;71.40
77118;BME280;66072;50.238;19.228;2023-04-03T07:34:31;99143.92;;;1.27;71.67
77118;BME280;66072;50.238;19.228;2023-04-03T07:36:59;99139.20;;;1.22;71.18
77118;BME280;66072;50.238;19.228;2023-04-03T07:39:27;99140.04;;;1.18;71.96
77118;BME280;66072;50.238;19.228;2023-04-03T07:41:54;99141.05;;;1.18;71.82
77118;BME280;66072;50.238;19.228;2023-04-03T07:44:22;99140.21;;;1.23;70.61
77118;BME280;66072;50.238;19.228;2023-04-03T07:46:49;99143.92;;;1.29;69.67
77118;BME280;66072;50.238;19.228;2023-04-03T07:49:17;99142.58;;;1.30;69.37
77118;BME280;66072;50.238;19.228;2023-04-03T07:51:45;99140.23;;;1.40;69.96
77118;BME280;66072;50.238;19.228;2023-04-03T07:54:12;99139.05;;;1.49;70.56
77118;BME280;66072;50.238;19.228;2023-04-03T07:56:40;99140.07;;;1.65;70.60
77118;BME280;66072;50.238;19.228;2023-04-03T07:59:09;99142.43;;;1.86;70.38
77118;BME280;66072;50.238;19.228;2023-04-03T08:01:37;99147.48;;;2.06;68.99
77118;BME280;66072;50.238;19.228;2023-04-03T08:04:05;99144.92;;;2.25;68.47
77118;BME280;66072;50.238;19.228;2023-04-03T08:06:33;99153.64;;;2.45;67.76
77118;BME280;66072;50.238;19.228;2023-04-03T08:09:14;99148.66;;;2.70;66.66
77118;BME280;66072;50.238;19.228;2023-04-03T08:11:42;99146.21;;;2.90;66.98
77118;BME280;66072;50.238;19.228;2023-04-03T08:14:11;99142.71;;;3.13;65.90
77118;BME280;66072;50.238;19.228;2023-04-03T08:16:39;99143.48;;;3.27;64.32
77118;BME280;66072;50.238;19.228;2023-04-03T08:19:06;99145.11;;;3.38;65.52
77118;BME280;66072;50.238;19.228;2023-04-03T08:21:41;99141.95;;;3.53;65.65
77118;BME280;66072;50.238;19.228;2023-04-03T08:24:09;99145.44;;;3.63;63.65
77118;BME280;66072;50.238;19.228;2023-04-03T08:26:37;99146.61;;;3.64;62.59
77118;BME280;66072;50.238;19.228;2023-04-03T08:29:05;99148.76;;;3.70;61.65
77118;BME280;66072;50.238;19.228;2023-04-03T08:31:32;99144.11;;;3.80;61.12
77118;BME280;66072;50.238;19.228;2023-04-03T08:34:00;99150.75;;;3.95;60.77
77118;BME280;66072;50.238;19.228;2023-04-03T08:36:29;99150.38;;;4.17;61.01
77118;BME280;66072;50.238;19.228;2023-04-03T08:38:56;99153.63;;;4.47;61.23
77118;BME280;66072;50.238;19.228;2023-04-03T08:41:26;99153.96;;;4.76;57.03
77118;BME280;66072;50.238;19.228;2023-04-03T08:49:33;99164.39;;;4.84;56.77
77118;BME280;66072;50.238;19.228;2023-04-03T08:52:05;99166.16;;;4.92;55.61
77118;BME280;66072;50.238;19.228;2023-04-03T08:55:02;99166.30;;;4.95;54.86
77118;BME280;66072;50.238;19.228;2023-04-03T08:57:35;99170.08;;;4.91;54.50
77118;BME280;66072;50.238;19.228;2023-04-03T09:00:49;99173.45;;;4.91;54.02
77118;BME280;66072;50.238;19.228;2023-04-03T09:03:19;99172.35;;;4.85;54.17
77118;BME280;66072;50.238;19.228;2023-04-03T09:05:58;99171.90;;;4.79;53.64
77118;BME280;66072;50.238;19.228;2023-04-03T09:08:31;99171.61;;;4.75;52.71
77118;BME280;66072;50.238;19.228;2023-04-03T09:19:21;99179.30;;;4.97;52.61
77118;BME280;66072;50.238;19.228;2023-04-03T09:21:57;99173.26;;;5.21;52.00
77118;BME280;66072;50.238;19.228;2023-04-03T09:24:25;99178.06;;;5.28;50.27
77118;BME280;66072;50.238;19.228;2023-04-03T09:27:00;99183.90;;;5.36;51.04
77118;BME280;66072;50.238;19.228;2023-04-03T09:29:28;99182.31;;;5.52;50.67
77118;BME280;66072;50.238;19.228;2023-04-03T09:32:00;99185.20;;;5.74;52.83
77118;BME280;66072;50.238;19.228;2023-04-03T09:34:32;99191.14;;;6.08;51.01
77118;BME280;66072;50.238;19.228;2023-04-03T09:37:03;99194.36;;;6.47;52.38
77118;BME280;66072;50.238;19.228;2023-04-03T09:39:47;99190.19;;;6.97;51.97
77118;BME280;66072;50.238;19.228;2023-04-03T09:42:20;99187.42;;;7.55;50.29
77118;BME280;66072;50.238;19.228;2023-04-03T09:44:59;99190.77;;;7.79;46.41
77118;BME280;66072;50.238;19.228;2023-04-03T09:50:21;99188.36;;;8.42;47.86
77118;BME280;66072;50.238;19.228;2023-04-03T09:52:50;99190.20;;;9.13;46.26
77118;BME280;66072;50.238;19.228;2023-04-03T09:55:21;99195.86;;;9.63;44.18
77118;BME280;66072;50.238;19.228;2023-04-03T09:57:49;99201.39;;;10.41;43.14
77118;BME280;66072;50.238;19.228;2023-04-03T10:00:37;99202.16;;;10.59;41.70
77118;BME280;66072;50.238;19.228;2023-04-03T10:03:24;99201.15;;;10.28;41.02
77118;BME280;66072;50.238;19.228;2023-04-03T10:05:52;99202.62;;;10.09;39.95
77118;BME280;66072;50.238;19.228;2023-04-03T10:08:27;99202.02;;;9.46;41.04
77118;BME280;66072;50.238;19.228;2023-04-03T10:11:16;99202.73;;;9.39;40.40
77118;BME280;66072;50.238;19.228;2023-04-03T10:13:58;99205.67;;;11.03;36.61
77118;BME280;66072;50.238;19.228;2023-04-03T10:19:06;99196.89;;;13.01;34.47
77118;BME280;66072;50.238;19.228;2023-04-03T10:24:25;99204.50;;;11.80;35.08
77118;BME280;66072;50.238;19.228;2023-04-03T10:27:05;99209.52;;;10.78;33.94
77118;BME280;66072;50.238;19.228;2023-04-03T10:29:48;99215.52;;;10.01;35.95
77118;BME280;66072;50.238;19.228;2023-04-03T10:32:46;99216.02;;;10.01;36.32
77118;BME280;66072;50.238;19.228;2023-04-03T10:35:41;99209.20;;;11.24;35.31
77118;BME280;66072;50.238;19.228;2023-04-03T10:41:12;99202.46;;;11.76;34.55
77118;BME280;66072;50.238;19.228;2023-04-03T10:43:57;99198.30;;;11.99;33.93
77118;BME280;66072;50.238;19.228;2023-04-03T10:51:44;99192.61;;;13.31;35.51
77118;BME280;66072;50.238;19.228;2023-04-03T10:54:24;99193.64;;;13.04;31.23
77118;BME280;66072;50.238;19.228;2023-04-03T10:56:56;99187.59;;;12.38;31.42
77118;BME280;66072;50.238;19.228;2023-04-03T10:59:45;99193.80;;;11.91;32.62
77118;BME280;66072;50.238;19.228;2023-04-03T11:05:07;99198.79;;;11.24;33.87
77118;BME280;66072;50.238;19.228;2023-04-03T11:07:50;99197.96;;;10.81;33.56
77118;BME280;66072;50.238;19.228;2023-04-03T11:10:42;99202.60;;;10.66;35.28
77118;BME280;66072;50.238;19.228;2023-04-03T11:13:17;99199.65;;;10.52;33.91
77118;BME280;66072;50.238;19.228;2023-04-03T11:15:47;99200.52;;;9.94;33.92
77118;BME280;66072;50.238;19.228;2023-04-03T11:18:20;99201.48;;;9.80;34.33
77118;BME280;66072;50.238;19.228;2023-04-03T11:20:59;99199.25;;;11.06;33.35
77118;BME280;66072;50.238;19.228;2023-04-03T11:23:39;99195.83;;;10.92;32.73
77118;BME280;66072;50.238;19.228;2023-04-03T11:26:26;99188.55;;;10.21;34.55
77118;BME280;66072;50.238;19.228;2023-04-03T11:28:59;99188.23;;;10.31;33.43
77118;BME280;66072;50.238;19.228;2023-04-03T11:36:48;99183.87;;;15.93;26.34
77118;BME280;66072;50.238;19.228;2023-04-03T11:39:28;99178.63;;;16.56;25.13
77118;BME280;66072;50.238;19.228;2023-04-03T11:42:13;99173.84;;;17.73;24.45
77118;BME280;66072;50.238;19.228;2023-04-03T11:44:42;99168.89;;;18.76;23.84
77118;BME280;66072;50.238;19.228;2023-04-03T11:47:11;99165.91;;;20.15;23.54
77118;BME280;66072;50.238;19.228;2023-04-03T11:49:59;99163.81;;;21.24;21.98
77118;BME280;66072;50.238;19.228;2023-04-03T12:16:29;99163.66;;;19.13;23.19
77118;BME280;66072;50.238;19.228;2023-04-03T12:19:01;99157.41;;;21.62;19.35
77118;BME280;66072;50.238;19.228;2023-04-03T12:29:20;99147.56;;;19.16;20.09
77118;BME280;66072;50.238;19.228;2023-04-03T12:46:28;99147.30;;;11.04;24.95
77118;BME280;66072;50.238;19.228;2023-04-03T12:49:35;99148.30;;;10.23;26.34
77118;BME280;66072;50.238;19.228;2023-04-03T12:52:03;99148.73;;;11.25;25.29
77118;BME280;66072;50.238;19.228;2023-04-03T12:54:37;99142.48;;;12.01;24.79
77118;BME280;66072;50.238;19.228;2023-04-03T12:57:17;99146.03;;;12.06;25.06
77118;BME280;66072;50.238;19.228;2023-04-03T12:59:45;99141.90;;;12.44;24.31
77118;BME280;66072;50.238;19.228;2023-04-03T13:02:25;99144.72;;;13.10;23.83
77118;BME280;66072;50.238;19.228;2023-04-03T13:04:57;99148.73;;;15.36;22.17
77118;BME280;66072;50.238;19.228;2023-04-03T13:07:31;99139.45;;;15.60;23.00
77118;BME280;66072;50.238;19.228;2023-04-03T13:12:34;99136.14;;;18.40;21.84
77118;BME280;66072;50.238;19.228;2023-04-03T13:15:30;99140.54;;;18.42;22.55
77118;BME280;66072;50.238;19.228;2023-04-03T13:18:02;99147.08;;;16.52;22.84
77118;BME280;66072;50.238;19.228;2023-04-03T13:20:33;99156.85;;;14.74;23.83
77118;BME280;66072;50.238;19.228;2023-04-03T13:23:05;99154.91;;;13.36;26.18
77118;BME280;66072;50.238;19.228;2023-04-03T13:25:39;99152.09;;;12.41;26.60
77118;BME280;66072;50.238;19.228;2023-04-03T13:28:15;99150.23;;;11.83;27.84
77118;BME280;66072;50.238;19.228;2023-04-03T13:33:32;99148.55;;;12.00;28.51
77118;BME280;66072;50.238;19.228;2023-04-03T13:36:30;99152.49;;;13.48;26.99
77118;BME280;66072;50.238;19.228;2023-04-03T13:41:48;99159.66;;;20.22;19.73
77118;BME280;66072;50.238;19.228;2023-04-03T13:46:55;99169.89;;;23.49;18.55
77118;BME280;66072;50.238;19.228;2023-04-03T13:49:34;99175.69;;;23.29;16.09
77118;BME280;66072;50.238;19.228;2023-04-03T13:54:52;99173.55;;;21.95;17.62
77118;BME280;66072;50.238;19.228;2023-04-03T13:57:20;99172.00;;;22.54;17.84
77118;BME280;66072;50.238;19.228;2023-04-03T13:59:48;99167.95;;;24.15;17.06
77118;BME280;66072;50.238;19.228;2023-04-03T14:02:23;99168.08;;;25.27;15.74
77118;BME280;66072;50.238;19.228;2023-04-03T14:04:58;99172.02;;;23.76;16.07
77118;BME280;66072;50.238;19.228;2023-04-03T14:07:28;99167.75;;;23.75;15.78
77118;BME280;66072;50.238;19.228;2023-04-03T14:09:56;99165.17;;;23.17;17.34
77118;BME280;66072;50.238;19.228;2023-04-03T14:12:32;99168.62;;;24.46;16.33
77118;BME280;66072;50.238;19.228;2023-04-03T14:15:01;99165.50;;;25.74;14.95
77118;BME280;66072;50.238;19.228;2023-04-03T14:17:29;99171.16;;;26.67;14.08
77118;BME280;66072;50.238;19.228;2023-04-03T14:19:57;99167.25;;;25.17;14.93
77118;BME280;66072;50.238;19.228;2023-04-03T14:22:29;99165.33;;;23.45;16.56
77118;BME280;66072;50.238;19.228;2023-04-03T14:24:57;99170.56;;;24.55;17.09
77118;BME280;66072;50.238;19.228;2023-04-03T14:27:33;99161.83;;;24.10;15.87
77118;BME280;66072;50.238;19.228;2023-04-03T14:30:03;99163.84;;;24.26;15.47
77118;BME280;66072;50.238;19.228;2023-04-03T14:32:32;99172.55;;;23.54;14.95
77118;BME280;66072;50.238;19.228;2023-04-03T14:34:59;99167.66;;;21.08;16.59
77118;BME280;66072;50.238;19.228;2023-04-03T14:37:30;99162.14;;;19.91;17.56
77118;BME280;66072;50.238;19.228;2023-04-03T14:40:00;99163.55;;;18.75;19.14
77118;BME280;66072;50.238;19.228;2023-04-03T14:42:31;99161.34;;;17.89;20.83
77118;BME280;66072;50.238;19.228;2023-04-03T14:45:00;99164.38;;;16.43;21.53
77118;BME280;66072;50.238;19.228;2023-04-03T14:47:29;99164.05;;;14.91;23.00
77118;BME280;66072;50.238;19.228;2023-04-03T14:50:01;99169.09;;;13.67;24.24
77118;BME280;66072;50.238;19.228;2023-04-03T14:52:34;99168.70;;;12.93;24.50
77118;BME280;66072;50.238;19.228;2023-04-03T14:55:04;99166.87;;;14.46;23.73
77118;BME280;66072;50.238;19.228;2023-04-03T14:57:32;99161.69;;;16.53;20.91